createdAt,value
2022-10-18T00:04:33.977Z,6.95
2022-10-18T00:09:36.387Z,7.55
2022-10-18T00:14:38.820Z,7.40
2022-10-18T00:19:41.238Z,7.07
2022-10-18T00:24:43.739Z,6.27
2022-10-18T00:29:46.324Z,6.90
2022-10-18T00:34:48.875Z,6.57
2022-10-18T00:45:20.648Z,7.18
2022-10-18T00:50:24.125Z,5.87
2022-10-18T00:55:27.704Z,6.97
2022-10-18T01:00:30.261Z,7.80
2022-10-18T01:05:32.946Z,6.27
2022-10-18T01:10:51.832Z,7.00
2022-10-18T01:16:26.685Z,6.23
2022-10-18T01:21:36.345Z,6.57
2022-10-18T01:27:05.456Z,6.80
2022-10-18T01:32:19.279Z,6.73
2022-10-18T01:37:22.593Z,6.78
2022-10-18T01:42:25.684Z,7.33
2022-10-18T01:47:28.920Z,6.65
2022-10-18T01:52:31.953Z,5.90
2022-10-18T01:57:53.963Z,6.93
2022-10-18T02:03:23.077Z,6.55
2022-10-18T02:08:42.724Z,6.77
2022-10-18T02:13:49.230Z,7.75
2022-10-18T02:19:12.803Z,6.95
2022-10-18T02:24:15.834Z,5.67
2022-10-18T02:29:18.400Z,6.75
2022-10-18T02:34:23.459Z,6.90
2022-10-18T02:39:38.140Z,6.63
2022-10-18T02:44:40.695Z,6.45
2022-10-18T02:49:43.123Z,5.67
2022-10-18T02:54:45.547Z,4.53
2022-10-18T02:59:47.979Z,7.00
2022-10-18T03:04:50.553Z,4.63
2022-10-18T03:09:52.993Z,4.88
2022-10-18T03:14:55.416Z,5.73
2022-10-18T03:19:57.878Z,3.85
2022-10-18T03:25:00.348Z,5.40
2022-10-18T03:30:02.923Z,4.95
2022-10-18T03:35:06.979Z,5.82
2022-10-18T03:40:09.820Z,6.03
2022-10-18T03:45:12.302Z,4.90
2022-10-18T03:50:14.902Z,5.63
2022-10-18T03:55:17.459Z,4.20
2022-10-18T04:00:19.984Z,5.15
2022-10-18T04:05:24.202Z,5.03
2022-10-18T04:10:26.857Z,5.32
2022-10-18T04:15:29.309Z,5.90
2022-10-18T04:20:31.731Z,5.55
2022-10-18T04:25:34.277Z,5.70
2022-10-18T04:30:36.828Z,6.10
2022-10-18T04:35:39.283Z,5.10
2022-10-18T04:40:41.718Z,5.77
2022-10-18T04:45:46.671Z,4.95
2022-10-18T04:50:49.962Z,5.18
2022-10-18T04:55:52.460Z,6.47
2022-10-18T05:00:54.912Z,7.10
2022-10-18T05:06:01.635Z,6.97
2022-10-18T05:11:05.893Z,5.80
2022-10-18T05:16:08.435Z,6.32
2022-10-18T05:21:12.406Z,4.70
2022-10-18T05:26:14.834Z,7.82
2022-10-18T05:31:17.427Z,7.53
2022-10-18T05:36:19.857Z,5.70
2022-10-18T05:41:22.298Z,5.70
2022-10-18T05:46:25.048Z,6.63
2022-10-18T05:51:27.479Z,7.90
2022-10-18T05:56:30.051Z,7.60
2022-10-18T06:01:32.591Z,8.18
2022-10-18T06:06:35.235Z,8.45
2022-10-18T06:11:38.071Z,7.57
2022-10-18T06:16:40.522Z,7.13
2022-10-18T06:21:44.422Z,7.20
2022-10-18T06:26:46.878Z,5.85
2022-10-18T06:31:49.298Z,5.95
2022-10-18T06:36:55.017Z,7.13
2022-10-18T06:42:00.484Z,6.50
2022-10-18T06:47:02.964Z,6.33
2022-10-18T06:52:07.564Z,5.90
2022-10-18T06:57:09.979Z,7.38
2022-10-18T07:02:17.344Z,7.40
2022-10-18T07:07:21.266Z,7.63
2022-10-18T07:12:23.706Z,7.13
2022-10-18T07:17:26.669Z,7.78
2022-10-18T07:22:30.360Z,6.38
2022-10-18T07:27:37.393Z,6.03
2022-10-18T07:32:39.880Z,6.15
2022-10-18T07:37:49.743Z,6.90
2022-10-18T07:42:52.255Z,6.55
2022-10-18T07:47:57.938Z,7.00
2022-10-18T07:53:00.392Z,7.07
2022-10-18T07:58:02.813Z,7.03
2022-10-18T08:03:05.323Z,5.60
2022-10-18T08:08:08.173Z,7.10
2022-10-18T08:13:10.778Z,5.65
2022-10-18T08:18:14.395Z,5.50
2022-10-18T08:23:16.860Z,5.65
2022-10-18T08:28:19.308Z,5.85
2022-10-18T08:33:21.795Z,5.43
2022-10-18T08:38:24.785Z,5.50
2022-10-18T08:43:38.984Z,4.65
2022-10-18T08:48:47.706Z,5.33
2022-10-18T08:54:04.301Z,5.53
2022-10-18T08:59:11.089Z,5.40
2022-10-18T09:04:25.627Z,4.97
2022-10-18T09:09:46.613Z,5.05
2022-10-18T09:14:49.023Z,5.47
2022-10-18T09:20:10.029Z,5.33
2022-10-18T09:25:18.613Z,6.68
2022-10-18T09:30:34.963Z,5.50
2022-10-18T09:35:50.902Z,4.70
2022-10-18T09:40:57.053Z,4.70
2022-10-18T09:45:59.736Z,4.43
2022-10-18T09:51:24.555Z,4.43
2022-10-18T09:56:52.410Z,4.20
2022-10-18T10:01:55.044Z,3.45
2022-10-18T10:07:00.616Z,3.03
2022-10-18T10:12:03.188Z,3.00
2022-10-18T10:17:23.163Z,1.25
2022-10-18T10:22:47.807Z,2.33
2022-10-18T10:27:50.577Z,1.88
2022-10-18T10:32:54.408Z,2.80
2022-10-18T10:37:57.174Z,1.10
2022-10-18T10:43:18.231Z,1.92
2022-10-18T10:48:27.829Z,2.22
2022-10-18T10:53:50.218Z,1.80
2022-10-18T10:58:53.662Z,2.10
2022-10-18T11:03:59.020Z,6.45
2022-10-18T11:09:05.249Z,6.53
2022-10-18T11:14:25.789Z,2.85
2022-10-18T11:20:05.233Z,2.20
2022-10-18T11:25:13.099Z,15.17
2022-10-18T11:30:28.390Z,2.58
2022-10-18T11:35:51.081Z,2.17
2022-10-18T11:41:22.706Z,2.27
2022-10-18T11:46:41.535Z,1.85
2022-10-18T11:52:08.441Z,1.77
2022-10-18T11:57:42.773Z,2.10
2022-10-18T12:03:19.883Z,2.47
2022-10-18T12:08:44.915Z,2.45
2022-10-18T12:14:05.153Z,1.50
2022-10-18T12:19:13.978Z,1.60
2022-10-18T12:24:23.385Z,2.33
2022-10-18T12:29:48.016Z,1.77
2022-10-18T12:35:14.821Z,1.40
2022-10-18T12:40:38.546Z,2.10
2022-10-18T12:45:58.402Z,1.48
2022-10-18T12:51:16.822Z,1.90
2022-10-18T12:56:44.550Z,3.10
2022-10-18T13:01:53.155Z,3.10
2022-10-18T13:06:58.645Z,2.47
2022-10-18T13:12:09.969Z,2.92
2022-10-18T13:17:40.392Z,3.80
2022-10-18T13:22:54.772Z,3.77
2022-10-18T13:28:24.558Z,3.53
2022-10-18T13:33:39.303Z,2.53
2022-10-18T13:38:41.756Z,2.10
2022-10-18T13:43:53.375Z,1.42
2022-10-18T13:49:00.961Z,2.05
2022-10-18T13:54:13.904Z,1.60
2022-10-18T13:59:28.176Z,46.00
2022-10-18T14:04:52.463Z,7.33
2022-10-18T14:09:58.523Z,1.87
2022-10-18T14:15:21.338Z,1.80
2022-10-18T14:20:29.425Z,2.15
2022-10-18T14:25:36.107Z,1.80
2022-10-18T14:30:54.373Z,1.60
2022-10-18T14:36:03.327Z,1.80
2022-10-18T14:41:11.961Z,1.63
2022-10-18T14:46:23.919Z,2.40
2022-10-18T14:51:30.526Z,4.60
2022-10-18T14:56:38.756Z,4.80
2022-10-18T15:01:41.302Z,10.65
2022-10-18T15:06:44.763Z,9.27
2022-10-18T15:11:47.837Z,3.50
2022-10-18T15:16:51.703Z,12.02
2022-10-18T15:22:07.955Z,6.37
2022-10-18T15:27:31.716Z,3.10
2022-10-18T15:32:34.777Z,2.30
2022-10-18T15:37:45.900Z,1.63
2022-10-18T15:42:52.869Z,1.73
2022-10-18T15:48:09.366Z,2.08
2022-10-18T15:53:33.567Z,2.47
2022-10-18T15:58:45.498Z,2.50
2022-10-18T16:03:48.264Z,2.95
2022-10-18T16:08:53.277Z,2.20
2022-10-18T16:13:58.022Z,2.97
2022-10-18T16:19:02.889Z,2.83
2022-10-18T16:24:06.303Z,2.77
2022-10-18T16:29:23.090Z,3.15
2022-10-18T16:34:29.234Z,3.50
2022-10-18T16:39:34.952Z,2.88
2022-10-18T16:44:37.383Z,4.00
2022-10-18T16:49:43.997Z,2.03
2022-10-18T16:54:46.560Z,3.88
2022-10-18T16:59:50.596Z,4.47
2022-10-18T17:04:55.355Z,5.67
2022-10-18T17:09:57.775Z,4.90
2022-10-18T17:15:00.359Z,3.27
2022-10-18T17:20:03.061Z,4.18
2022-10-18T17:25:05.808Z,5.55
2022-10-18T17:30:08.972Z,7.37
2022-10-18T17:35:12.194Z,8.40
2022-10-18T17:40:14.871Z,9.95
2022-10-18T17:45:17.844Z,8.13
2022-10-18T17:50:20.289Z,7.80
2022-10-18T17:55:22.727Z,6.60
2022-10-18T18:00:25.356Z,5.65
2022-10-18T18:05:33.637Z,5.53
2022-10-18T18:10:36.466Z,7.07
2022-10-18T18:15:38.991Z,7.60
2022-10-18T18:20:41.472Z,8.60
2022-10-18T18:25:43.919Z,6.40
2022-10-18T18:30:46.405Z,9.70
2022-10-18T18:35:58.126Z,4.03
2022-10-18T18:41:18.654Z,7.75
2022-10-18T18:46:21.743Z,10.33
2022-10-18T18:51:27.177Z,9.70
2022-10-18T18:56:29.924Z,9.68
2022-10-18T19:01:35.366Z,11.50
2022-10-18T19:06:45.829Z,7.47
2022-10-18T19:11:53.072Z,8.63
2022-10-18T19:16:58.850Z,7.97
2022-10-18T19:22:05.281Z,6.28
2022-10-18T19:27:11.852Z,8.27
2022-10-18T19:32:16.900Z,15.40
2022-10-18T19:37:19.918Z,13.00
2022-10-18T19:42:26.137Z,13.20
2022-10-18T19:47:29.992Z,12.77
2022-10-18T19:52:32.697Z,15.47
2022-10-18T19:57:35.398Z,11.57
2022-10-18T20:02:37.887Z,17.53
2022-10-18T20:07:41.365Z,23.00
2022-10-18T20:12:43.832Z,18.67
2022-10-18T20:17:46.324Z,11.70
2022-10-18T20:22:49.762Z,12.20
2022-10-18T20:27:52.189Z,12.53
2022-10-18T20:32:54.662Z,16.35
2022-10-18T20:37:57.167Z,18.88
2022-10-18T20:43:03.613Z,13.57
2022-10-18T20:48:06.520Z,15.30
2022-10-18T20:53:08.990Z,16.60
2022-10-18T20:58:11.738Z,15.77
2022-10-18T21:03:14.466Z,17.45
2022-10-18T21:08:17.028Z,19.83
2022-10-18T21:13:19.458Z,29.23
2022-10-18T21:18:24.992Z,25.20
2022-10-18T21:23:27.409Z,24.77
2022-10-18T21:28:29.909Z,21.40
2022-10-18T21:33:32.378Z,9.57
2022-10-18T21:38:34.840Z,9.10
2022-10-18T21:43:41.953Z,6.60
2022-10-18T21:48:46.135Z,8.18
2022-10-18T21:53:50.414Z,8.75
2022-10-18T21:58:53.433Z,8.37
2022-10-18T22:03:56.964Z,10.55
2022-10-18T22:09:01.560Z,13.33
2022-10-18T22:14:04.214Z,6.85
2022-10-18T22:19:07.416Z,6.55
2022-10-18T22:24:10.469Z,6.53
2022-10-18T22:29:18.003Z,8.00
2022-10-18T22:34:23.364Z,7.53
2022-10-18T22:39:25.937Z,10.30
2022-10-18T22:44:28.491Z,10.73
2022-10-18T22:49:30.920Z,10.37
2022-10-18T22:54:33.393Z,10.48
2022-10-18T22:59:35.821Z,8.93
2022-10-18T23:04:38.558Z,9.90
2022-10-18T23:14:48.619Z,7.40
2022-10-18T23:19:51.053Z,8.65
2022-10-18T23:24:53.496Z,6.47
2022-10-18T23:29:56.114Z,5.85
2022-10-18T23:34:58.586Z,6.82
2022-10-18T23:40:01.225Z,7.60
2022-10-18T23:45:03.831Z,7.50
2022-10-18T23:50:06.759Z,9.37
2022-10-18T23:55:09.450Z,9.52
